sensor_id;sensor_type;location;lat;lon;timestamp;P1;durP1;ratioP1;P2;durP2;ratioP2
14015;SDS011;7083;48.854;9.158;2023-10-09T00:01:41;127.17;;;120.97;;
14015;SDS011;7083;48.854;9.158;2023-10-09T00:04:09;125.80;;;119.70;;
14015;SDS011;7083;48.854;9.158;2023-10-09T00:06:37;137.40;;;130.93;;
14015;SDS011;7083;48.854;9.158;2023-10-09T00:09:04;141.43;;;134.57;;
14015;SDS011;7083;48.854;9.158;2023-10-09T00:11:51;131.63;;;125.23;;
14015;SDS011;7083;48.854;9.158;2023-10-09T00:14:23;139.63;;;132.90;;
14015;SDS011;7083;48.854;9.158;2023-10-09T00:16:51;137.43;;;131.13;;
14015;SDS011;7083;48.854;9.158;2023-10-09T00:19:30;128.97;;;122.73;;
14015;SDS011;7083;48.854;9.158;2023-10-09T00:21:58;137.63;;;131.00;;
14015;SDS011;7083;48.854;9.158;2023-10-09T00:24:31;136.37;;;129.70;;
14015;SDS011;7083;48.854;9.158;2023-10-09T00:26:58;136.83;;;130.50;;
14015;SDS011;7083;48.854;9.158;2023-10-09T00:29:38;352.40;;;335.73;;
14015;SDS011;7083;48.854;9.158;2023-10-09T00:32:10;180.93;;;172.10;;
14015;SDS011;7083;48.854;9.158;2023-10-09T00:34:48;140.90;;;133.90;;
14015;SDS011;7083;48.854;9.158;2023-10-09T00:37:15;143.13;;;136.03;;
14015;SDS011;7083;48.854;9.158;2023-10-09T00:39:47;134.43;;;127.93;;
14015;SDS011;7083;48.854;9.158;2023-10-09T00:42:21;134.57;;;128.17;;
14015;SDS011;7083;48.854;9.158;2023-10-09T00:44:54;131.43;;;125.10;;
14015;SDS011;7083;48.854;9.158;2023-10-09T00:47:21;156.87;;;149.33;;
14015;SDS011;7083;48.854;9.158;2023-10-09T00:49:52;159.80;;;152.33;;
14015;SDS011;7083;48.854;9.158;2023-10-09T00:52:24;151.93;;;144.60;;
14015;SDS011;7083;48.854;9.158;2023-10-09T00:54:56;202.73;;;193.73;;
14015;SDS011;7083;48.854;9.158;2023-10-09T00:57:27;165.97;;;158.57;;
14015;SDS011;7083;48.854;9.158;2023-10-09T00:59:55;130.13;;;124.23;;
14015;SDS011;7083;48.854;9.158;2023-10-09T01:02:26;104.87;;;99.60;;
14015;SDS011;7083;48.854;9.158;2023-10-09T01:05:01;89.93;;;85.63;;
14015;SDS011;7083;48.854;9.158;2023-10-09T01:07:43;98.43;;;93.13;;
14015;SDS011;7083;48.854;9.158;2023-10-09T01:10:11;84.43;;;80.10;;
14015;SDS011;7083;48.854;9.158;2023-10-09T01:12:41;73.13;;;69.63;;
14015;SDS011;7083;48.854;9.158;2023-10-09T01:15:10;82.73;;;78.47;;
14015;SDS011;7083;48.854;9.158;2023-10-09T01:18:01;84.33;;;80.20;;
14015;SDS011;7083;48.854;9.158;2023-10-09T01:20:29;59.87;;;56.43;;
14015;SDS011;7083;48.854;9.158;2023-10-09T01:23:07;68.37;;;64.63;;
14015;SDS011;7083;48.854;9.158;2023-10-09T01:25:34;70.13;;;66.53;;
14015;SDS011;7083;48.854;9.158;2023-10-09T01:28:08;84.10;;;79.63;;
14015;SDS011;7083;48.854;9.158;2023-10-09T01:30:35;92.40;;;87.93;;
14015;SDS011;7083;48.854;9.158;2023-10-09T01:33:06;102.50;;;97.53;;
14015;SDS011;7083;48.854;9.158;2023-10-09T01:35:47;100.07;;;95.40;;
14015;SDS011;7083;48.854;9.158;2023-10-09T01:38:17;114.43;;;109.23;;
14015;SDS011;7083;48.854;9.158;2023-10-09T01:40:55;114.97;;;109.47;;
14015;SDS011;7083;48.854;9.158;2023-10-09T01:43:29;113.87;;;108.67;;
14015;SDS011;7083;48.854;9.158;2023-10-09T01:45:59;100.10;;;94.73;;
14015;SDS011;7083;48.854;9.158;2023-10-09T01:48:29;94.37;;;89.50;;
14015;SDS011;7083;48.854;9.158;2023-10-09T01:51:01;111.33;;;106.03;;
14015;SDS011;7083;48.854;9.158;2023-10-09T01:53:31;125.13;;;119.00;;
14015;SDS011;7083;48.854;9.158;2023-10-09T01:56:09;119.40;;;113.67;;
14015;SDS011;7083;48.854;9.158;2023-10-09T01:58:40;122.30;;;116.27;;
14015;SDS011;7083;48.854;9.158;2023-10-09T02:01:12;124.90;;;118.90;;
14015;SDS011;7083;48.854;9.158;2023-10-09T02:03:39;120.67;;;114.93;;
14015;SDS011;7083;48.854;9.158;2023-10-09T02:06:08;126.93;;;120.93;;
14015;SDS011;7083;48.854;9.158;2023-10-09T02:08:52;124.73;;;118.37;;
14015;SDS011;7083;48.854;9.158;2023-10-09T02:11:19;120.83;;;114.83;;
14015;SDS011;7083;48.854;9.158;2023-10-09T02:14:01;123.47;;;117.40;;
14015;SDS011;7083;48.854;9.158;2023-10-09T02:16:40;131.53;;;125.23;;
14015;SDS011;7083;48.854;9.158;2023-10-09T02:19:07;128.43;;;122.20;;
14015;SDS011;7083;48.854;9.158;2023-10-09T02:21:53;140.60;;;133.33;;
14015;SDS011;7083;48.854;9.158;2023-10-09T02:24:23;143.13;;;136.13;;
14015;SDS011;7083;48.854;9.158;2023-10-09T02:27:07;150.50;;;143.03;;
14015;SDS011;7083;48.854;9.158;2023-10-09T02:29:34;173.73;;;164.90;;
14015;SDS011;7083;48.854;9.158;2023-10-09T02:32:07;166.27;;;157.63;;
14015;SDS011;7083;48.854;9.158;2023-10-09T02:34:50;174.33;;;165.13;;
14015;SDS011;7083;48.854;9.158;2023-10-09T02:37:18;159.37;;;151.67;;
14015;SDS011;7083;48.854;9.158;2023-10-09T02:39:49;164.57;;;156.00;;
14015;SDS011;7083;48.854;9.158;2023-10-09T02:42:17;150.10;;;142.83;;
14015;SDS011;7083;48.854;9.158;2023-10-09T02:44:52;152.97;;;144.73;;
14015;SDS011;7083;48.854;9.158;2023-10-09T02:47:20;148.70;;;141.27;;
14015;SDS011;7083;48.854;9.158;2023-10-09T02:49:50;155.87;;;147.77;;
14015;SDS011;7083;48.854;9.158;2023-10-09T02:52:17;165.27;;;156.67;;
14015;SDS011;7083;48.854;9.158;2023-10-09T02:54:51;144.17;;;137.03;;
14015;SDS011;7083;48.854;9.158;2023-10-09T02:57:25;160.50;;;152.40;;
14015;SDS011;7083;48.854;9.158;2023-10-09T03:00:01;173.27;;;163.93;;
14015;SDS011;7083;48.854;9.158;2023-10-09T03:02:28;168.53;;;160.23;;
14015;SDS011;7083;48.854;9.158;2023-10-09T03:04:56;159.10;;;150.97;;
14015;SDS011;7083;48.854;9.158;2023-10-09T03:07:24;161.43;;;153.60;;
14015;SDS011;7083;48.854;9.158;2023-10-09T03:09:52;158.43;;;150.83;;
14015;SDS011;7083;48.854;9.158;2023-10-09T03:12:20;153.97;;;146.33;;
14015;SDS011;7083;48.854;9.158;2023-10-09T03:14:51;145.23;;;138.13;;
14015;SDS011;7083;48.854;9.158;2023-10-09T03:17:20;141.87;;;134.63;;
14015;SDS011;7083;48.854;9.158;2023-10-09T03:19:47;138.00;;;130.87;;
14015;SDS011;7083;48.854;9.158;2023-10-09T03:22:14;130.13;;;123.37;;
14015;SDS011;7083;48.854;9.158;2023-10-09T03:24:41;139.33;;;132.67;;
14015;SDS011;7083;48.854;9.158;2023-10-09T03:27:11;136.43;;;129.77;;
14015;SDS011;7083;48.854;9.158;2023-10-09T03:29:39;147.53;;;140.00;;
14015;SDS011;7083;48.854;9.158;2023-10-09T03:32:13;143.80;;;136.80;;
14015;SDS011;7083;48.854;9.158;2023-10-09T03:34:40;146.17;;;139.00;;
14015;SDS011;7083;48.854;9.158;2023-10-09T03:37:08;150.50;;;142.40;;
14015;SDS011;7083;48.854;9.158;2023-10-09T03:39:46;139.30;;;132.57;;
14015;SDS011;7083;48.854;9.158;2023-10-09T03:42:18;137.80;;;131.17;;
14015;SDS011;7083;48.854;9.158;2023-10-09T03:44:45;142.77;;;136.07;;
14015;SDS011;7083;48.854;9.158;2023-10-09T03:47:18;140.90;;;134.23;;
14015;SDS011;7083;48.854;9.158;2023-10-09T03:49:47;137.67;;;130.73;;
14015;SDS011;7083;48.854;9.158;2023-10-09T03:52:16;128.20;;;122.00;;
14015;SDS011;7083;48.854;9.158;2023-10-09T03:54:44;125.67;;;119.40;;
14015;SDS011;7083;48.854;9.158;2023-10-09T03:57:11;119.00;;;113.10;;
14015;SDS011;7083;48.854;9.158;2023-10-09T03:59:44;118.17;;;112.47;;
14015;SDS011;7083;48.854;9.158;2023-10-09T04:02:12;130.60;;;123.97;;
14015;SDS011;7083;48.854;9.158;2023-10-09T04:04:39;124.07;;;117.80;;
14015;SDS011;7083;48.854;9.158;2023-10-09T04:07:10;114.73;;;109.50;;
14015;SDS011;7083;48.854;9.158;2023-10-09T04:09:37;110.90;;;105.57;;
14015;SDS011;7083;48.854;9.158;2023-10-09T04:12:09;106.30;;;100.57;;
14015;SDS011;7083;48.854;9.158;2023-10-09T04:14:47;96.70;;;91.57;;
14015;SDS011;7083;48.854;9.158;2023-10-09T04:17:19;98.97;;;94.13;;
14015;SDS011;7083;48.854;9.158;2023-10-09T04:19:59;96.43;;;91.77;;
14015;SDS011;7083;48.854;9.158;2023-10-09T04:22:44;87.27;;;82.90;;
14015;SDS011;7083;48.854;9.158;2023-10-09T04:25:16;94.60;;;89.87;;
14015;SDS011;7083;48.854;9.158;2023-10-09T04:27:50;96.37;;;91.50;;
14015;SDS011;7083;48.854;9.158;2023-10-09T04:30:19;95.70;;;90.90;;
14015;SDS011;7083;48.854;9.158;2023-10-09T04:32:48;101.73;;;96.50;;
14015;SDS011;7083;48.854;9.158;2023-10-09T04:35:20;99.60;;;94.33;;
14015;SDS011;7083;48.854;9.158;2023-10-09T04:37:49;98.50;;;93.07;;
14015;SDS011;7083;48.854;9.158;2023-10-09T04:40:17;99.10;;;93.90;;
14015;SDS011;7083;48.854;9.158;2023-10-09T04:43:06;93.63;;;88.97;;
14015;SDS011;7083;48.854;9.158;2023-10-09T04:45:36;95.33;;;90.47;;
14015;SDS011;7083;48.854;9.158;2023-10-09T04:48:29;89.03;;;83.93;;
14015;SDS011;7083;48.854;9.158;2023-10-09T04:51:03;92.37;;;87.57;;
14015;SDS011;7083;48.854;9.158;2023-10-09T04:53:59;87.07;;;82.37;;
14015;SDS011;7083;48.854;9.158;2023-10-09T04:56:37;92.17;;;87.27;;
14015;SDS011;7083;48.854;9.158;2023-10-09T04:59:16;88.50;;;83.90;;
14015;SDS011;7083;48.854;9.158;2023-10-09T05:01:45;94.17;;;89.27;;
14015;SDS011;7083;48.854;9.158;2023-10-09T05:04:22;90.67;;;86.07;;
14015;SDS011;7083;48.854;9.158;2023-10-09T05:07:04;88.73;;;84.37;;
14015;SDS011;7083;48.854;9.158;2023-10-09T05:09:48;89.13;;;84.60;;
14015;SDS011;7083;48.854;9.158;2023-10-09T05:12:39;86.50;;;81.63;;
14015;SDS011;7083;48.854;9.158;2023-10-09T05:15:11;89.97;;;85.03;;
14015;SDS011;7083;48.854;9.158;2023-10-09T05:17:40;94.43;;;89.50;;
14015;SDS011;7083;48.854;9.158;2023-10-09T05:20:17;97.50;;;92.27;;
14015;SDS011;7083;48.854;9.158;2023-10-09T05:23:01;86.20;;;81.57;;
14015;SDS011;7083;48.854;9.158;2023-10-09T05:25:48;77.30;;;73.00;;
14015;SDS011;7083;48.854;9.158;2023-10-09T05:28:23;85.23;;;80.77;;
14015;SDS011;7083;48.854;9.158;2023-10-09T05:30:50;92.13;;;86.97;;
14015;SDS011;7083;48.854;9.158;2023-10-09T05:33:29;86.23;;;81.43;;
14015;SDS011;7083;48.854;9.158;2023-10-09T05:35:58;87.33;;;82.37;;
14015;SDS011;7083;48.854;9.158;2023-10-09T05:38:42;439.42;;;413.73;;
14015;SDS011;7083;48.854;9.158;2023-10-09T05:41:13;216.83;;;206.00;;
14015;SDS011;7083;48.854;9.158;2023-10-09T05:44:12;122.00;;;115.57;;
14015;SDS011;7083;48.854;9.158;2023-10-09T05:46:57;107.10;;;101.47;;
14015;SDS011;7083;48.854;9.158;2023-10-09T05:49:45;91.93;;;86.67;;
14015;SDS011;7083;48.854;9.158;2023-10-09T05:52:19;91.87;;;86.90;;
14015;SDS011;7083;48.854;9.158;2023-10-09T05:55:18;82.73;;;78.17;;
14015;SDS011;7083;48.854;9.158;2023-10-09T05:58:02;79.23;;;75.13;;
14015;SDS011;7083;48.854;9.158;2023-10-09T06:00:49;80.03;;;75.77;;
14015;SDS011;7083;48.854;9.158;2023-10-09T06:03:45;77.37;;;73.17;;
14015;SDS011;7083;48.854;9.158;2023-10-09T06:06:20;93.30;;;88.23;;
14015;SDS011;7083;48.854;9.158;2023-10-09T06:09:00;85.50;;;81.13;;
14015;SDS011;7083;48.854;9.158;2023-10-09T06:11:53;77.50;;;73.27;;
14015;SDS011;7083;48.854;9.158;2023-10-09T06:14:37;83.43;;;78.97;;
14015;SDS011;7083;48.854;9.158;2023-10-09T06:17:23;83.23;;;78.90;;
14015;SDS011;7083;48.854;9.158;2023-10-09T06:19:49;97.80;;;92.90;;
14015;SDS011;7083;48.854;9.158;2023-10-09T06:22:25;97.60;;;92.47;;
14015;SDS011;7083;48.854;9.158;2023-10-09T06:25:12;88.73;;;84.00;;
14015;SDS011;7083;48.854;9.158;2023-10-09T06:27:43;95.70;;;90.50;;
14015;SDS011;7083;48.854;9.158;2023-10-09T06:30:24;96.83;;;91.23;;
14015;SDS011;7083;48.854;9.158;2023-10-09T06:32:52;112.37;;;105.53;;
14015;SDS011;7083;48.854;9.158;2023-10-09T06:35:33;129.67;;;122.73;;
14015;SDS011;7083;48.854;9.158;2023-10-09T06:38:02;158.03;;;150.00;;
14015;SDS011;7083;48.854;9.158;2023-10-09T06:40:48;141.30;;;133.67;;
14015;SDS011;7083;48.854;9.158;2023-10-09T06:43:32;135.37;;;128.40;;
14015;SDS011;7083;48.854;9.158;2023-10-09T06:46:13;148.80;;;141.13;;
14015;SDS011;7083;48.854;9.158;2023-10-09T06:49:08;128.17;;;121.27;;
14015;SDS011;7083;48.854;9.158;2023-10-09T06:51:55;133.97;;;127.07;;
14015;SDS011;7083;48.854;9.158;2023-10-09T06:54:40;140.63;;;133.33;;
14015;SDS011;7083;48.854;9.158;2023-10-09T06:57:16;144.07;;;136.67;;
14015;SDS011;7083;48.854;9.158;2023-10-09T07:00:04;146.80;;;139.40;;
14015;SDS011;7083;48.854;9.158;2023-10-09T07:02:49;152.47;;;144.17;;
14015;SDS011;7083;48.854;9.158;2023-10-09T07:05:18;156.57;;;148.63;;
14015;SDS011;7083;48.854;9.158;2023-10-09T07:07:45;177.30;;;168.23;;
14015;SDS011;7083;48.854;9.158;2023-10-09T07:10:21;182.80;;;172.63;;
14015;SDS011;7083;48.854;9.158;2023-10-09T07:13:04;184.10;;;174.83;;
14015;SDS011;7083;48.854;9.158;2023-10-09T07:15:30;194.60;;;185.00;;
14015;SDS011;7083;48.854;9.158;2023-10-09T07:18:15;200.33;;;190.23;;
14015;SDS011;7083;48.854;9.158;2023-10-09T07:20:48;204.33;;;194.07;;
14015;SDS011;7083;48.854;9.158;2023-10-09T07:23:25;191.60;;;181.70;;
14015;SDS011;7083;48.854;9.158;2023-10-09T07:26:03;191.20;;;181.70;;
14015;SDS011;7083;48.854;9.158;2023-10-09T07:28:43;169.27;;;160.43;;
14015;SDS011;7083;48.854;9.158;2023-10-09T07:31:16;169.17;;;160.37;;
14015;SDS011;7083;48.854;9.158;2023-10-09T07:33:49;169.33;;;160.73;;
14015;SDS011;7083;48.854;9.158;2023-10-09T07:36:23;148.53;;;141.17;;
14015;SDS011;7083;48.854;9.158;2023-10-09T07:38:59;132.57;;;125.60;;
14015;SDS011;7083;48.854;9.158;2023-10-09T07:41:31;138.23;;;131.23;;
14015;SDS011;7083;48.854;9.158;2023-10-09T07:44:03;131.83;;;125.07;;
14015;SDS011;7083;48.854;9.158;2023-10-09T07:46:44;131.70;;;125.00;;
14015;SDS011;7083;48.854;9.158;2023-10-09T07:49:17;140.30;;;133.00;;
14015;SDS011;7083;48.854;9.158;2023-10-09T07:51:49;142.60;;;135.20;;
14015;SDS011;7083;48.854;9.158;2023-10-09T07:54:17;138.00;;;130.73;;
14015;SDS011;7083;48.854;9.158;2023-10-09T07:56:58;151.20;;;143.60;;
14015;SDS011;7083;48.854;9.158;2023-10-09T07:59:34;148.57;;;140.80;;
14015;SDS011;7083;48.854;9.158;2023-10-09T08:02:06;164.63;;;156.53;;
14015;SDS011;7083;48.854;9.158;2023-10-09T08:04:38;179.27;;;169.77;;
14015;SDS011;7083;48.854;9.158;2023-10-09T08:07:13;200.90;;;190.53;;
14015;SDS011;7083;48.854;9.158;2023-10-09T08:09:44;222.43;;;211.57;;
14015;SDS011;7083;48.854;9.158;2023-10-09T08:12:15;255.40;;;243.20;;
14015;SDS011;7083;48.854;9.158;2023-10-09T08:15:00;292.07;;;277.90;;
14015;SDS011;7083;48.854;9.158;2023-10-09T08:17:41;304.67;;;289.77;;
14015;SDS011;7083;48.854;9.158;2023-10-09T08:20:13;375.77;;;356.77;;
14015;SDS011;7083;48.854;9.158;2023-10-09T08:22:42;439.53;;;417.00;;
14015;SDS011;7083;48.854;9.158;2023-10-09T08:25:15;442.63;;;419.77;;
14015;SDS011;7083;48.854;9.158;2023-10-09T08:27:56;476.00;;;451.07;;
14015;SDS011;7083;48.854;9.158;2023-10-09T08:30:24;504.90;;;477.63;;
14015;SDS011;7083;48.854;9.158;2023-10-09T08:33:14;511.63;;;483.47;;
14015;SDS011;7083;48.854;9.158;2023-10-09T08:35:59;544.60;;;513.10;;
14015;SDS011;7083;48.854;9.158;2023-10-09T08:38:30;550.63;;;517.13;;
14015;SDS011;7083;48.854;9.158;2023-10-09T08:41:06;525.87;;;493.70;;
14015;SDS011;7083;48.854;9.158;2023-10-09T08:43:42;408.40;;;385.00;;
14015;SDS011;7083;48.854;9.158;2023-10-09T08:46:12;407.87;;;384.80;;
14015;SDS011;7083;48.854;9.158;2023-10-09T08:48:43;385.73;;;364.10;;
14015;SDS011;7083;48.854;9.158;2023-10-09T08:51:10;436.57;;;411.13;;
14015;SDS011;7083;48.854;9.158;2023-10-09T08:53:39;383.93;;;362.33;;
14015;SDS011;7083;48.854;9.158;2023-10-09T08:56:08;383.70;;;362.60;;
14015;SDS011;7083;48.854;9.158;2023-10-09T08:58:35;376.77;;;355.73;;
14015;SDS011;7083;48.854;9.158;2023-10-09T09:01:04;312.73;;;296.93;;
14015;SDS011;7083;48.854;9.158;2023-10-09T09:03:37;301.67;;;287.57;;
14015;SDS011;7083;48.854;9.158;2023-10-09T09:06:05;324.30;;;307.63;;
14015;SDS011;7083;48.854;9.158;2023-10-09T09:08:33;329.40;;;313.27;;
14015;SDS011;7083;48.854;9.158;2023-10-09T09:11:02;322.50;;;306.20;;
14015;SDS011;7083;48.854;9.158;2023-10-09T09:13:36;297.20;;;281.97;;
14015;SDS011;7083;48.854;9.158;2023-10-09T09:16:07;283.00;;;268.13;;
14015;SDS011;7083;48.854;9.158;2023-10-09T09:18:48;248.23;;;235.13;;
14015;SDS011;7083;48.854;9.158;2023-10-09T09:21:17;241.60;;;228.83;;
14015;SDS011;7083;48.854;9.158;2023-10-09T09:23:52;263.50;;;248.83;;
14015;SDS011;7083;48.854;9.158;2023-10-09T09:26:27;269.83;;;255.27;;
14015;SDS011;7083;48.854;9.158;2023-10-09T09:29:02;277.20;;;262.13;;
14015;SDS011;7083;48.854;9.158;2023-10-09T09:31:32;279.20;;;263.83;;
14015;SDS011;7083;48.854;9.158;2023-10-09T09:34:03;295.47;;;279.53;;
14015;SDS011;7083;48.854;9.158;2023-10-09T09:36:39;291.63;;;275.97;;
14015;SDS011;7083;48.854;9.158;2023-10-09T09:39:18;305.00;;;288.57;;
14015;SDS011;7083;48.854;9.158;2023-10-09T09:41:51;315.07;;;297.13;;
14015;SDS011;7083;48.854;9.158;2023-10-09T09:44:18;339.07;;;320.03;;
14015;SDS011;7083;48.854;9.158;2023-10-09T09:46:49;474.37;;;445.60;;
14015;SDS011;7083;48.854;9.158;2023-10-09T09:49:18;400.53;;;377.37;;
14015;SDS011;7083;48.854;9.158;2023-10-09T09:51:46;409.40;;;385.87;;
14015;SDS011;7083;48.854;9.158;2023-10-09T09:54:13;427.13;;;400.43;;
14015;SDS011;7083;48.854;9.158;2023-10-09T09:56:40;508.93;;;476.50;;
14015;SDS011;7083;48.854;9.158;2023-10-09T09:59:09;548.63;;;513.40;;
14015;SDS011;7083;48.854;9.158;2023-10-09T10:01:46;598.13;;;557.90;;
14015;SDS011;7083;48.854;9.158;2023-10-09T10:04:23;562.50;;;524.77;;
14015;SDS011;7083;48.854;9.158;2023-10-09T10:06:51;603.60;;;562.33;;
14015;SDS011;7083;48.854;9.158;2023-10-09T10:09:33;640.77;;;597.07;;
14015;SDS011;7083;48.854;9.158;2023-10-09T10:12:03;695.30;;;646.67;;
14015;SDS011;7083;48.854;9.158;2023-10-09T10:14:51;749.20;;;695.57;;
14015;SDS011;7083;48.854;9.158;2023-10-09T10:17:19;763.73;;;708.10;;
14015;SDS011;7083;48.854;9.158;2023-10-09T10:20:01;769.47;;;713.50;;
14015;SDS011;7083;48.854;9.158;2023-10-09T10:22:50;781.33;;;722.70;;
14015;SDS011;7083;48.854;9.158;2023-10-09T10:25:33;785.57;;;727.27;;
14015;SDS011;7083;48.854;9.158;2023-10-09T10:31:07;716.40;;;664.20;;
14015;SDS011;7083;48.854;9.158;2023-10-09T10:36:21;743.53;;;689.37;;
14015;SDS011;7083;48.854;9.158;2023-10-09T10:38:54;771.30;;;713.83;;
14015;SDS011;7083;48.854;9.158;2023-10-09T10:41:29;760.60;;;704.50;;
14015;SDS011;7083;48.854;9.158;2023-10-09T10:44:01;754.47;;;697.77;;
14015;SDS011;7083;48.854;9.158;2023-10-09T10:46:49;704.33;;;652.37;;
14015;SDS011;7083;48.854;9.158;2023-10-09T10:49:17;734.50;;;678.73;;
14015;SDS011;7083;48.854;9.158;2023-10-09T10:51:48;505.53;;;472.97;;
14015;SDS011;7083;48.854;9.158;2023-10-09T10:54:26;646.00;;;599.90;;
14015;SDS011;7083;48.854;9.158;2023-10-09T10:57:14;550.13;;;511.30;;
14015;SDS011;7083;48.854;9.158;2023-10-09T10:59:53;467.87;;;436.47;;
14015;SDS011;7083;48.854;9.158;2023-10-09T11:02:30;455.23;;;426.77;;
14015;SDS011;7083;48.854;9.158;2023-10-09T11:04:56;430.10;;;404.63;;
14015;SDS011;7083;48.854;9.158;2023-10-09T11:07:40;165.90;;;157.40;;
14015;SDS011;7083;48.854;9.158;2023-10-09T11:10:09;154.33;;;146.67;;
14015;SDS011;7083;48.854;9.158;2023-10-09T11:12:43;168.83;;;159.90;;
14015;SDS011;7083;48.854;9.158;2023-10-09T11:15:31;177.67;;;168.43;;
14015;SDS011;7083;48.854;9.158;2023-10-09T11:18:03;53.77;;;49.33;;
14015;SDS011;7083;48.854;9.158;2023-10-09T11:20:42;626.27;;;581.97;;
14015;SDS011;7083;48.854;9.158;2023-10-09T11:23:22;588.23;;;546.23;;
14015;SDS011;7083;48.854;9.158;2023-10-09T11:26:02;538.13;;;501.93;;
14015;SDS011;7083;48.854;9.158;2023-10-09T11:28:46;483.67;;;452.90;;
14015;SDS011;7083;48.854;9.158;2023-10-09T11:31:21;436.83;;;411.33;;
14015;SDS011;7083;48.854;9.158;2023-10-09T11:33:48;442.07;;;416.67;;
14015;SDS011;7083;48.854;9.158;2023-10-09T11:36:16;579.80;;;544.57;;
14015;SDS011;7083;48.854;9.158;2023-10-09T11:38:44;326.60;;;310.27;;
14015;SDS011;7083;48.854;9.158;2023-10-09T11:41:14;296.70;;;281.70;;
14015;SDS011;7083;48.854;9.158;2023-10-09T11:43:45;304.90;;;289.47;;
14015;SDS011;7083;48.854;9.158;2023-10-09T11:46:17;324.43;;;308.20;;
14015;SDS011;7083;48.854;9.158;2023-10-09T11:49:05;333.70;;;316.77;;
14015;SDS011;7083;48.854;9.158;2023-10-09T11:51:51;346.93;;;328.87;;
14015;SDS011;7083;48.854;9.158;2023-10-09T11:54:56;338.07;;;320.60;;
14015;SDS011;7083;48.854;9.158;2023-10-09T11:57:24;311.77;;;296.03;;
14015;SDS011;7083;48.854;9.158;2023-10-09T11:59:56;306.53;;;291.33;;
14015;SDS011;7083;48.854;9.158;2023-10-09T12:02:25;306.43;;;290.90;;
14015;SDS011;7083;48.854;9.158;2023-10-09T12:04:52;344.37;;;326.40;;
14015;SDS011;7083;48.854;9.158;2023-10-09T12:07:21;417.50;;;394.47;;
14015;SDS011;7083;48.854;9.158;2023-10-09T12:09:48;312.90;;;297.30;;
14015;SDS011;7083;48.854;9.158;2023-10-09T12:12:18;252.60;;;239.87;;
14015;SDS011;7083;48.854;9.158;2023-10-09T12:14:50;209.30;;;199.37;;
14015;SDS011;7083;48.854;9.158;2023-10-09T12:17:18;189.33;;;180.40;;
14015;SDS011;7083;48.854;9.158;2023-10-09T12:19:49;170.70;;;162.60;;
14015;SDS011;7083;48.854;9.158;2023-10-09T12:22:17;183.40;;;173.80;;
14015;SDS011;7083;48.854;9.158;2023-10-09T12:24:46;178.60;;;170.07;;
14015;SDS011;7083;48.854;9.158;2023-10-09T12:27:13;173.70;;;165.60;;
14015;SDS011;7083;48.854;9.158;2023-10-09T12:29:46;167.03;;;158.20;;
14015;SDS011;7083;48.854;9.158;2023-10-09T12:32:14;185.57;;;176.87;;
14015;SDS011;7083;48.854;9.158;2023-10-09T12:34:44;179.77;;;172.00;;
14015;SDS011;7083;48.854;9.158;2023-10-09T12:37:15;173.90;;;165.83;;
14015;SDS011;7083;48.854;9.158;2023-10-09T12:39:45;172.40;;;164.33;;
14015;SDS011;7083;48.854;9.158;2023-10-09T12:42:12;159.37;;;151.13;;
14015;SDS011;7083;48.854;9.158;2023-10-09T12:44:42;161.33;;;154.00;;
14015;SDS011;7083;48.854;9.158;2023-10-09T12:47:10;162.53;;;154.87;;
14015;SDS011;7083;48.854;9.158;2023-10-09T12:49:37;167.93;;;159.83;;
14015;SDS011;7083;48.854;9.158;2023-10-09T12:52:06;169.83;;;162.20;;
14015;SDS011;7083;48.854;9.158;2023-10-09T12:54:40;161.13;;;153.83;;
14015;SDS011;7083;48.854;9.158;2023-10-09T12:57:07;164.07;;;156.27;;
14015;SDS011;7083;48.854;9.158;2023-10-09T12:59:38;159.17;;;150.03;;
14015;SDS011;7083;48.854;9.158;2023-10-09T13:02:11;170.07;;;161.93;;
14015;SDS011;7083;48.854;9.158;2023-10-09T13:04:38;155.67;;;148.07;;
14015;SDS011;7083;48.854;9.158;2023-10-09T13:07:07;141.03;;;134.57;;
14015;SDS011;7083;48.854;9.158;2023-10-09T13:09:34;137.07;;;130.57;;
14015;SDS011;7083;48.854;9.158;2023-10-09T13:12:07;649.77;;;607.17;;
14015;SDS011;7083;48.854;9.158;2023-10-09T13:14:39;651.47;;;607.63;;
14015;SDS011;7083;48.854;9.158;2023-10-09T13:17:06;641.53;;;599.00;;
14015;SDS011;7083;48.854;9.158;2023-10-09T13:19:36;652.20;;;608.67;;
14015;SDS011;7083;48.854;9.158;2023-10-09T13:22:03;654.90;;;611.20;;
14015;SDS011;7083;48.854;9.158;2023-10-09T13:24:37;640.57;;;598.03;;
14015;SDS011;7083;48.854;9.158;2023-10-09T13:27:05;664.90;;;620.30;;
14015;SDS011;7083;48.854;9.158;2023-10-09T13:29:34;641.07;;;598.77;;
14015;SDS011;7083;48.854;9.158;2023-10-09T13:32:04;593.93;;;554.87;;
14015;SDS011;7083;48.854;9.158;2023-10-09T13:34:39;221.77;;;211.07;;
14015;SDS011;7083;48.854;9.158;2023-10-09T13:37:09;217.70;;;207.73;;
14015;SDS011;7083;48.854;9.158;2023-10-09T13:39:38;192.67;;;183.77;;
14015;SDS011;7083;48.854;9.158;2023-10-09T13:42:17;550.43;;;516.13;;
14015;SDS011;7083;48.854;9.158;2023-10-09T13:44:44;566.60;;;531.13;;
14015;SDS011;7083;48.854;9.158;2023-10-09T13:47:13;549.37;;;514.37;;
14015;SDS011;7083;48.854;9.158;2023-10-09T13:49:47;527.40;;;494.13;;
14015;SDS011;7083;48.854;9.158;2023-10-09T13:52:15;476.17;;;447.73;;
14015;SDS011;7083;48.854;9.158;2023-10-09T13:54:44;452.43;;;426.20;;
14015;SDS011;7083;48.854;9.158;2023-10-09T13:57:13;416.10;;;392.20;;
14015;SDS011;7083;48.854;9.158;2023-10-09T13:59:41;349.00;;;329.08;;
14015;SDS011;7083;48.854;9.158;2023-10-09T14:02:14;318.40;;;298.35;;
14015;SDS011;7083;48.854;9.158;2023-10-09T14:04:43;259.02;;;244.00;;
14015;SDS011;7083;48.854;9.158;2023-10-09T14:07:12;502.95;;;471.10;;
14015;SDS011;7083;48.854;9.158;2023-10-09T14:09:42;275.35;;;257.92;;
14015;SDS011;7083;48.854;9.158;2023-10-09T14:12:20;273.52;;;254.93;;
14015;SDS011;7083;48.854;9.158;2023-10-09T14:14:49;219.98;;;207.68;;
14015;SDS011;7083;48.854;9.158;2023-10-09T14:17:19;317.55;;;296.40;;
14015;SDS011;7083;48.854;9.158;2023-10-09T14:19:50;293.53;;;273.87;;
14015;SDS011;7083;48.854;9.158;2023-10-09T14:22:18;293.07;;;273.63;;
14015;SDS011;7083;48.854;9.158;2023-10-09T14:24:46;314.53;;;293.80;;
14015;SDS011;7083;48.854;9.158;2023-10-09T14:27:13;463.73;;;436.00;;
14015;SDS011;7083;48.854;9.158;2023-10-09T14:29:43;417.63;;;393.37;;
14015;SDS011;7083;48.854;9.158;2023-10-09T14:32:10;422.20;;;397.63;;
14015;SDS011;7083;48.854;9.158;2023-10-09T14:34:38;438.07;;;412.90;;
14015;SDS011;7083;48.854;9.158;2023-10-09T14:37:08;433.53;;;408.70;;
14015;SDS011;7083;48.854;9.158;2023-10-09T14:39:38;417.63;;;393.33;;
14015;SDS011;7083;48.854;9.158;2023-10-09T14:42:05;425.53;;;401.13;;
14015;SDS011;7083;48.854;9.158;2023-10-09T14:44:34;430.07;;;405.57;;
14015;SDS011;7083;48.854;9.158;2023-10-09T14:47:02;412.37;;;389.10;;
14015;SDS011;7083;48.854;9.158;2023-10-09T14:49:30;406.97;;;383.90;;
14015;SDS011;7083;48.854;9.158;2023-10-09T14:52:00;395.43;;;372.30;;
14015;SDS011;7083;48.854;9.158;2023-10-09T14:54:27;379.67;;;357.43;;
14015;SDS011;7083;48.854;9.158;2023-10-09T14:56:55;389.10;;;367.30;;